createdAt,value
2022-11-05T00:00:12.785Z,9.90
2022-11-05T00:02:58.125Z,9.90
2022-11-05T00:05:46.663Z,9.80
2022-11-05T00:08:32.303Z,9.80
2022-11-05T00:11:00.605Z,9.70
2022-11-05T00:13:43.090Z,9.70
2022-11-05T00:16:35.508Z,9.70
2022-11-05T00:19:10.320Z,9.80
2022-11-05T00:21:57.933Z,9.80
2022-11-05T00:24:43.799Z,9.80
2022-11-05T00:27:12.312Z,9.80
2022-11-05T00:29:40.474Z,9.80
2022-11-05T00:32:09.956Z,9.80
2022-11-05T00:34:38.193Z,9.80
2022-11-05T00:37:06.294Z,9.80
2022-11-05T00:39:34.438Z,9.90
2022-11-05T00:42:20.095Z,9.90
2022-11-05T00:45:03.321Z,9.90
2022-11-05T00:48:00.751Z,9.90
2022-11-05T00:50:29.891Z,9.80
2022-11-05T00:53:00.588Z,9.70
2022-11-05T00:55:34.799Z,9.60
2022-11-05T00:58:04.646Z,9.60
2022-11-05T01:00:34.594Z,9.60
2022-11-05T01:03:07.471Z,9.70
2022-11-05T01:05:39.317Z,9.60
2022-11-05T01:08:08.734Z,9.60
2022-11-05T01:10:40.590Z,9.60
2022-11-05T01:13:12.951Z,9.60
2022-11-05T01:15:42.228Z,9.60
2022-11-05T01:18:12.388Z,9.50
2022-11-05T01:20:41.117Z,9.50
2022-11-05T01:23:13.595Z,9.40
2022-11-05T01:25:42.037Z,9.30
2022-11-05T01:28:10.687Z,9.30
2022-11-05T01:30:39.379Z,9.40
2022-11-05T01:33:08.155Z,9.40
2022-11-05T01:35:37.933Z,9.50
2022-11-05T01:38:06.053Z,9.40
2022-11-05T01:40:34.213Z,9.40
2022-11-05T01:43:02.265Z,9.40
2022-11-05T01:45:30.599Z,9.50
2022-11-05T01:48:06.986Z,9.50
2022-11-05T01:50:47.394Z,9.40
2022-11-05T01:53:21.726Z,9.30
2022-11-05T01:55:56.134Z,9.40
2022-11-05T01:58:28.969Z,9.40
2022-11-05T02:00:57.987Z,9.50
2022-11-05T02:03:27.543Z,9.50
2022-11-05T02:05:58.439Z,9.60
2022-11-05T02:08:37.729Z,9.60
2022-11-05T02:11:06.630Z,9.60
2022-11-05T02:13:34.791Z,9.60
2022-11-05T02:16:11.992Z,9.60
2022-11-05T02:18:51.197Z,9.70
2022-11-05T02:21:51.704Z,9.70
2022-11-05T02:24:35.981Z,9.60
2022-11-05T02:27:17.520Z,9.60
2022-11-05T02:30:27.419Z,9.60
2022-11-05T02:33:17.337Z,9.60
2022-11-05T02:36:00.589Z,9.60
2022-11-05T02:38:39.024Z,9.60
2022-11-05T02:41:15.532Z,9.60
2022-11-05T02:43:52.590Z,9.70
2022-11-05T02:46:32.242Z,9.70
2022-11-05T02:49:09.944Z,9.60
2022-11-05T02:51:45.645Z,9.60
2022-11-05T02:54:21.386Z,9.70
2022-11-05T02:56:56.254Z,9.70
2022-11-05T02:59:24.381Z,9.70
2022-11-05T03:01:55.150Z,9.70
2022-11-05T03:04:24.914Z,9.70
2022-11-05T03:07:04.235Z,9.80
2022-11-05T03:09:58.339Z,9.80
2022-11-05T03:12:34.719Z,9.80
2022-11-05T03:15:12.861Z,9.80
2022-11-05T03:17:50.521Z,9.80
2022-11-05T03:20:21.848Z,9.80
2022-11-05T03:22:55.814Z,9.70
2022-11-05T03:25:27.217Z,9.60
2022-11-05T03:28:01.898Z,9.50
2022-11-05T03:30:30.677Z,9.50
2022-11-05T03:33:04.111Z,9.40
2022-11-05T03:35:37.321Z,9.30
2022-11-05T03:38:10.770Z,9.30
2022-11-05T03:40:40.031Z,9.30
2022-11-05T03:43:10.167Z,9.30
2022-11-05T03:45:42.924Z,9.30
2022-11-05T03:48:13.851Z,9.30
2022-11-05T03:50:46.829Z,9.30
2022-11-05T03:53:18.167Z,9.30
2022-11-05T03:55:51.961Z,9.30
2022-11-05T03:58:22.589Z,9.40
2022-11-05T04:00:51.999Z,9.40
2022-11-05T04:03:21.484Z,9.40
2022-11-05T04:06:10.424Z,9.40
2022-11-05T04:08:56.074Z,9.30
2022-11-05T04:11:41.789Z,9.40
2022-11-05T04:14:10.007Z,9.40
2022-11-05T04:16:55.361Z,9.40
2022-11-05T04:19:38.720Z,9.40
2022-11-05T04:22:24.187Z,9.40
2022-11-05T04:24:52.308Z,9.40
2022-11-05T04:27:20.533Z,9.50
2022-11-05T04:30:05.931Z,9.40
2022-11-05T04:32:34.055Z,9.30
2022-11-05T04:35:03.560Z,9.40
2022-11-05T04:37:31.671Z,9.50
2022-11-05T04:39:59.772Z,9.60
2022-11-05T04:42:29.433Z,9.50
2022-11-05T04:44:57.583Z,9.50
2022-11-05T04:47:25.733Z,9.50
2022-11-05T04:49:53.916Z,9.50
2022-11-05T04:52:23.523Z,9.50
2022-11-05T04:54:51.669Z,9.40
2022-11-05T04:57:19.830Z,9.50
2022-11-05T04:59:49.683Z,9.50
2022-11-05T05:02:17.921Z,9.60
2022-11-05T05:04:46.569Z,9.60
2022-11-05T05:07:14.723Z,9.60
2022-11-05T05:09:44.206Z,9.60
2022-11-05T05:12:12.339Z,9.60
2022-11-05T05:14:40.467Z,9.60
2022-11-05T05:17:08.685Z,9.50
2022-11-05T05:19:56.813Z,9.50
2022-11-05T05:22:23.994Z,9.60
2022-11-05T05:24:54.381Z,9.60
2022-11-05T05:27:22.895Z,9.60
2022-11-05T05:29:51.249Z,9.60
2022-11-05T05:32:19.383Z,9.50
2022-11-05T05:34:47.569Z,9.50
2022-11-05T05:37:15.922Z,9.50
2022-11-05T05:39:44.658Z,9.60
2022-11-05T05:42:14.422Z,9.60
2022-11-05T05:44:42.660Z,9.50
2022-11-05T05:47:10.923Z,9.40
2022-11-05T05:49:39.095Z,9.40
2022-11-05T05:52:07.788Z,9.40
2022-11-05T05:54:41.357Z,9.40
2022-11-05T05:57:11.105Z,9.40
2022-11-05T05:59:40.578Z,9.50
2022-11-05T06:02:08.773Z,9.40
2022-11-05T06:04:37.027Z,9.40
2022-11-05T06:07:05.246Z,9.40
2022-11-05T06:09:33.344Z,9.30
2022-11-05T06:12:01.481Z,9.30
2022-11-05T06:14:29.665Z,9.10
2022-11-05T06:16:59.201Z,9.30
2022-11-05T06:19:27.480Z,9.20
2022-11-05T06:21:55.567Z,9.30
2022-11-05T06:24:23.688Z,9.30
2022-11-05T06:26:51.860Z,9.20
2022-11-05T06:29:19.955Z,9.20
2022-11-05T06:31:48.107Z,9.10
2022-11-05T06:34:17.647Z,9.20
2022-11-05T06:36:45.757Z,9.30
2022-11-05T06:39:14.103Z,9.30
2022-11-05T06:42:17.109Z,9.30
2022-11-05T06:44:30.427Z,9.40
2022-11-05T06:46:58.582Z,9.40
2022-11-05T06:49:28.115Z,9.40
2022-11-05T06:51:56.244Z,9.50
2022-11-05T06:54:24.363Z,9.60
2022-11-05T06:56:52.468Z,9.60
2022-11-05T06:59:20.721Z,9.60
2022-11-05T07:01:48.941Z,9.60
2022-11-05T07:04:17.246Z,9.60
2022-11-05T07:06:47.161Z,9.60
2022-11-05T07:09:15.643Z,9.60
2022-11-05T07:11:44.442Z,9.70
2022-11-05T07:14:12.544Z,9.70
2022-11-05T07:16:40.667Z,9.70
2022-11-05T07:19:08.771Z,9.70
2022-11-05T07:21:36.949Z,9.60
2022-11-05T07:24:07.571Z,9.70
2022-11-05T07:26:35.695Z,9.70
2022-11-05T07:29:03.831Z,9.70
2022-11-05T07:31:31.995Z,9.70
2022-11-05T07:34:01.144Z,9.70
2022-11-05T07:36:29.922Z,9.60
2022-11-05T07:39:00.528Z,9.50
2022-11-05T07:41:30.403Z,9.40
2022-11-05T07:43:59.013Z,9.30
2022-11-05T07:46:27.827Z,9.30
2022-11-05T07:48:56.584Z,9.40
2022-11-05T07:51:24.728Z,9.50
2022-11-05T07:53:52.859Z,9.50
2022-11-05T07:56:20.977Z,9.50
2022-11-05T07:58:51.291Z,9.50
2022-11-05T08:01:19.804Z,9.60
2022-11-05T08:03:48.810Z,9.70
2022-11-05T08:06:17.733Z,9.70
2022-11-05T08:08:47.161Z,9.80
2022-11-05T08:11:16.071Z,9.90
2022-11-05T08:13:44.226Z,9.90
2022-11-05T08:16:14.309Z,9.80
2022-11-05T08:18:42.969Z,9.90
2022-11-05T08:21:12.171Z,10.00
2022-11-05T08:23:41.347Z,10.10
2022-11-05T08:26:09.715Z,10.10
2022-11-05T08:28:37.933Z,10.30
2022-11-05T08:31:07.240Z,10.30
2022-11-05T08:33:37.371Z,10.30
2022-11-05T08:36:06.825Z,10.50
2022-11-05T08:38:35.011Z,10.60
2022-11-05T08:41:03.151Z,10.60
2022-11-05T08:43:31.625Z,10.70
2022-11-05T08:46:02.889Z,10.70
2022-11-05T08:48:31.654Z,10.80
2022-11-05T08:51:16.408Z,10.80
2022-11-05T08:53:45.278Z,10.90
2022-11-05T08:56:13.475Z,10.90
2022-11-05T08:58:41.780Z,10.90
2022-11-05T09:01:09.962Z,10.90
2022-11-05T09:03:38.929Z,10.90
2022-11-05T09:06:07.604Z,10.80
2022-11-05T09:08:37.229Z,10.80
2022-11-05T09:11:05.486Z,10.80
2022-11-05T09:13:33.858Z,10.70
2022-11-05T09:16:05.959Z,10.70
2022-11-05T09:18:35.048Z,10.70
2022-11-05T09:21:03.148Z,10.70
2022-11-05T09:23:34.657Z,10.60
2022-11-05T09:26:05.045Z,10.70
2022-11-05T09:28:33.896Z,10.70
2022-11-05T09:31:06.037Z,10.70
2022-11-05T09:33:36.641Z,10.70
2022-11-05T09:36:06.587Z,10.80
2022-11-05T09:38:36.001Z,10.80
2022-11-05T09:41:08.716Z,10.80
2022-11-05T09:43:43.284Z,10.80
2022-11-05T09:46:16.273Z,10.80
2022-11-05T09:48:49.103Z,10.80
2022-11-05T09:51:23.635Z,10.80
2022-11-05T09:53:53.817Z,10.70
2022-11-05T09:56:26.631Z,10.70
2022-11-05T09:58:59.721Z,10.70
2022-11-05T10:01:32.743Z,10.80
2022-11-05T10:04:04.012Z,10.90
2022-11-05T10:06:32.400Z,11.00
2022-11-05T10:09:06.605Z,11.10
2022-11-05T10:11:40.747Z,11.20
2022-11-05T10:14:15.825Z,11.20
2022-11-05T10:16:49.260Z,11.20
2022-11-05T10:19:28.208Z,11.20
2022-11-05T10:22:06.505Z,11.10
2022-11-05T10:24:35.352Z,11.10
2022-11-05T10:27:07.085Z,11.00
2022-11-05T10:29:36.269Z,11.00
2022-11-05T10:32:07.293Z,11.10
2022-11-05T10:34:38.036Z,11.10
2022-11-05T10:37:06.468Z,11.00
2022-11-05T10:39:35.877Z,11.10
2022-11-05T10:42:31.152Z,11.10
2022-11-05T10:45:05.825Z,11.20
2022-11-05T10:47:47.940Z,11.30
2022-11-05T10:50:20.486Z,11.30
2022-11-05T10:52:58.255Z,11.40
2022-11-05T10:55:29.651Z,11.60
2022-11-05T10:58:09.949Z,11.60
2022-11-05T11:00:39.381Z,11.40
2022-11-05T11:03:35.525Z,11.60
2022-11-05T11:06:08.012Z,11.80
2022-11-05T11:08:37.835Z,11.80
2022-11-05T11:11:09.012Z,11.80
2022-11-05T11:13:53.413Z,11.90
2022-11-05T11:16:23.877Z,11.80
2022-11-05T11:18:55.315Z,11.70
2022-11-05T11:21:24.292Z,11.80
2022-11-05T11:23:56.594Z,11.90
2022-11-05T11:26:29.851Z,11.90
2022-11-05T11:29:03.603Z,11.80
2022-11-05T11:31:34.451Z,11.90
2022-11-05T11:34:07.902Z,11.90
2022-11-05T11:36:47.905Z,12.10
2022-11-05T11:39:19.673Z,12.20
2022-11-05T11:41:52.988Z,12.30
2022-11-05T11:44:28.866Z,12.30
2022-11-05T11:47:04.717Z,12.30
2022-11-05T11:49:35.506Z,12.30
2022-11-05T11:52:14.587Z,12.30
2022-11-05T11:54:43.848Z,12.30
2022-11-05T11:57:30.075Z,12.40
2022-11-05T12:00:09.195Z,12.30
2022-11-05T12:03:10.406Z,12.30
2022-11-05T12:05:46.251Z,12.30
2022-11-05T12:08:45.554Z,12.30
2022-11-05T12:11:22.298Z,12.40
2022-11-05T12:14:04.405Z,12.50
2022-11-05T12:17:05.393Z,12.60
2022-11-05T12:19:51.154Z,12.60
2022-11-05T12:22:33.161Z,12.60
2022-11-05T12:25:15.125Z,13.00
2022-11-05T12:28:05.414Z,13.20
2022-11-05T12:30:44.314Z,13.10
2022-11-05T12:33:35.704Z,12.80
2022-11-05T12:36:17.932Z,12.90
2022-11-05T12:39:33.286Z,12.50
2022-11-05T12:42:04.424Z,12.50
2022-11-05T12:44:46.864Z,12.50
2022-11-05T12:47:50.863Z,12.40
2022-11-05T12:50:28.661Z,12.40
2022-11-05T12:53:17.121Z,12.60
2022-11-05T12:55:50.715Z,12.40
2022-11-05T12:58:23.774Z,12.30
2022-11-05T13:00:58.836Z,12.00
2022-11-05T13:03:40.953Z,11.80
2022-11-05T13:06:17.949Z,11.90
2022-11-05T13:08:53.357Z,12.20
2022-11-05T13:11:28.867Z,12.30
2022-11-05T13:14:09.089Z,12.40
2022-11-05T13:16:42.133Z,12.40
2022-11-05T13:19:18.961Z,12.70
2022-11-05T13:21:54.108Z,12.90
2022-11-05T13:24:28.715Z,12.60
2022-11-05T13:27:03.820Z,12.80
2022-11-05T13:29:36.713Z,12.80
2022-11-05T13:32:13.372Z,12.60
2022-11-05T13:34:41.615Z,12.90
2022-11-05T13:37:31.397Z,13.30
2022-11-05T13:40:04.522Z,13.40
2022-11-05T13:42:52.333Z,13.30
2022-11-05T13:45:40.001Z,13.10
2022-11-05T13:48:37.617Z,12.70
2022-11-05T13:51:44.069Z,12.70
2022-11-05T13:54:45.714Z,12.60
2022-11-05T13:57:33.297Z,12.40
2022-11-05T14:00:19.454Z,12.40
2022-11-05T14:02:50.826Z,12.60
2022-11-05T14:05:26.500Z,12.70
2022-11-05T14:07:55.713Z,12.40
2022-11-05T14:10:36.092Z,12.50
2022-11-05T14:13:18.148Z,12.40
2022-11-05T14:15:58.739Z,12.20
2022-11-05T14:18:39.887Z,12.10
2022-11-05T14:21:32.662Z,12.10
2022-11-05T14:24:19.091Z,12.10
2022-11-05T14:27:26.107Z,12.20
2022-11-05T14:29:54.320Z,12.30
2022-11-05T14:32:27.997Z,12.30
2022-11-05T14:35:01.707Z,12.30
2022-11-05T14:37:33.308Z,12.30
2022-11-05T14:40:31.919Z,12.30
2022-11-05T14:43:04.225Z,12.20
2022-11-05T14:45:35.325Z,12.10
2022-11-05T14:48:05.707Z,12.10
2022-11-05T14:50:38.170Z,12.10
2022-11-05T14:53:25.493Z,12.10
2022-11-05T14:56:01.445Z,12.20
2022-11-05T14:58:34.099Z,12.30
2022-11-05T15:01:03.210Z,12.40
2022-11-05T15:04:12.544Z,12.50
2022-11-05T15:06:40.887Z,12.60
2022-11-05T15:09:30.494Z,12.60
2022-11-05T15:12:17.940Z,12.30
2022-11-05T15:14:57.041Z,12.30
2022-11-05T15:17:30.074Z,12.20
2022-11-05T15:20:09.535Z,12.00
2022-11-05T15:22:42.370Z,11.90
2022-11-05T15:25:19.027Z,11.90
2022-11-05T15:28:04.893Z,11.90
2022-11-05T15:30:34.830Z,11.90
2022-11-05T15:33:10.827Z,11.80
2022-11-05T15:35:41.568Z,11.80
2022-11-05T15:38:29.266Z,11.80
2022-11-05T15:41:02.011Z,11.70
2022-11-05T15:43:30.307Z,11.60
2022-11-05T15:46:05.134Z,11.50
2022-11-05T15:48:33.844Z,11.30
2022-11-05T15:51:02.216Z,11.20
2022-11-05T15:53:56.012Z,11.10
2022-11-05T15:56:29.033Z,11.00
2022-11-05T15:59:01.549Z,11.00
2022-11-05T16:01:33.350Z,10.90
2022-11-05T16:04:09.714Z,10.80
2022-11-05T16:06:42.122Z,10.50
2022-11-05T16:09:24.895Z,10.50
2022-11-05T16:12:10.563Z,10.30
2022-11-05T16:14:38.948Z,10.20
2022-11-05T16:17:20.105Z,10.20
2022-11-05T16:19:48.888Z,10.10
2022-11-05T16:22:17.532Z,10.10
2022-11-05T16:24:46.298Z,10.10
2022-11-05T16:27:19.307Z,10.10
2022-11-05T16:29:53.466Z,10.10
2022-11-05T16:32:30.797Z,10.10
2022-11-05T16:35:01.627Z,9.90
2022-11-05T16:37:36.484Z,9.90
2022-11-05T16:40:10.911Z,9.80
2022-11-05T16:42:42.661Z,9.80
2022-11-05T16:45:14.031Z,9.80
2022-11-05T16:47:44.907Z,9.90
2022-11-05T16:50:26.334Z,9.90
2022-11-05T16:52:54.708Z,10.00
2022-11-05T16:55:23.208Z,9.90
2022-11-05T16:57:54.169Z,9.90
2022-11-05T17:00:23.331Z,9.90
2022-11-05T17:02:53.228Z,10.00
2022-11-05T17:05:24.826Z,9.80
2022-11-05T17:07:53.027Z,9.80
2022-11-05T17:10:22.413Z,9.80
2022-11-05T17:12:51.068Z,9.80
2022-11-05T17:15:21.804Z,9.80
2022-11-05T17:17:50.583Z,9.80
2022-11-05T17:20:28.647Z,9.80
2022-11-05T17:22:57.821Z,9.70
2022-11-05T17:25:26.840Z,9.70
2022-11-05T17:27:55.607Z,9.70
2022-11-05T17:30:24.386Z,9.80
2022-11-05T17:32:52.756Z,9.80
2022-11-05T17:35:22.685Z,9.80
2022-11-05T17:37:51.131Z,9.80
2022-11-05T17:40:22.401Z,9.70
2022-11-05T17:42:50.929Z,9.50
2022-11-05T17:45:19.574Z,9.40
2022-11-05T17:47:47.711Z,9.40
2022-11-05T17:50:17.713Z,9.50
2022-11-05T17:52:47.259Z,9.50
2022-11-05T17:55:18.742Z,9.50
2022-11-05T17:57:49.156Z,9.50
2022-11-05T18:00:19.593Z,9.50
2022-11-05T18:02:49.499Z,9.50
2022-11-05T18:05:18.369Z,9.50
2022-11-05T18:07:48.826Z,9.40
2022-11-05T18:10:17.510Z,9.40
2022-11-05T18:12:46.107Z,9.40
2022-11-05T18:15:14.971Z,9.40
2022-11-05T18:17:43.844Z,9.40
2022-11-05T18:20:18.631Z,9.30
2022-11-05T18:22:50.754Z,9.30
2022-11-05T18:25:19.759Z,9.30
2022-11-05T18:27:47.883Z,9.20
2022-11-05T18:30:16.291Z,9.10
2022-11-05T18:32:45.244Z,9.10
2022-11-05T18:35:14.544Z,9.00
2022-11-05T18:37:42.751Z,8.90
2022-11-05T18:40:13.298Z,8.80
2022-11-05T18:42:41.480Z,8.80
2022-11-05T18:45:11.057Z,8.70
2022-11-05T18:47:39.448Z,8.80
2022-11-05T18:50:10.729Z,8.70
2022-11-05T18:52:39.007Z,8.70
2022-11-05T18:55:08.404Z,8.70
2022-11-05T18:57:37.960Z,8.50
2022-11-05T19:00:07.145Z,8.40
2022-11-05T19:02:35.426Z,8.30
2022-11-05T19:07:51.975Z,8.10
2022-11-05T19:10:20.229Z,8.10
2022-11-05T19:12:49.823Z,8.00
2022-11-05T19:15:18.080Z,8.00
2022-11-05T19:17:46.455Z,7.90
2022-11-05T19:20:14.761Z,7.80
2022-11-05T19:22:42.961Z,7.80
2022-11-05T19:25:11.151Z,7.80
2022-11-05T19:27:39.736Z,7.80
2022-11-05T19:30:10.419Z,7.80
2022-11-05T19:32:38.557Z,7.70
2022-11-05T19:35:07.736Z,7.70
2022-11-05T19:37:35.895Z,7.70
2022-11-05T19:40:04.070Z,7.50
2022-11-05T19:42:32.189Z,7.40
2022-11-05T19:45:16.632Z,7.30
2022-11-05T19:47:49.877Z,7.30
2022-11-05T19:50:18.221Z,7.20
2022-11-05T19:52:46.301Z,7.10
2022-11-05T19:55:14.435Z,7.10
2022-11-05T19:57:42.622Z,7.00
2022-11-05T20:00:11.950Z,7.00
2022-11-05T20:02:40.324Z,7.10
2022-11-05T20:05:10.249Z,7.10
2022-11-05T20:07:38.397Z,7.20
2022-11-05T20:10:07.826Z,7.20
2022-11-05T20:12:36.482Z,7.20
2022-11-05T20:15:05.930Z,7.20
2022-11-05T20:17:34.045Z,7.30
2022-11-05T20:20:02.165Z,7.20
2022-11-05T20:22:31.652Z,7.10
2022-11-05T20:24:59.824Z,7.10
2022-11-05T20:27:27.919Z,7.10
2022-11-05T20:29:56.015Z,7.00
2022-11-05T20:32:24.397Z,7.00
2022-11-05T20:34:52.483Z,6.90
2022-11-05T20:37:20.984Z,6.90
2022-11-05T20:39:50.474Z,6.80
2022-11-05T20:42:18.593Z,6.80
2022-11-05T20:44:46.746Z,6.80
2022-11-05T20:47:14.904Z,6.70
2022-11-05T20:49:43.105Z,6.70
2022-11-05T20:52:12.207Z,6.50
2022-11-05T20:54:40.339Z,6.50
2022-11-05T20:57:09.898Z,6.50
2022-11-05T20:59:38.461Z,6.50
2022-11-05T21:02:06.815Z,6.40
2022-11-05T21:04:35.046Z,6.40
2022-11-05T21:07:03.275Z,6.40
2022-11-05T21:09:31.499Z,6.40
2022-11-05T21:12:11.464Z,6.50
2022-11-05T21:14:42.610Z,6.60
2022-11-05T21:17:14.546Z,6.70
2022-11-05T21:19:42.659Z,6.60
2022-11-05T21:22:15.104Z,6.50
2022-11-05T21:24:44.096Z,6.40
2022-11-05T21:27:12.269Z,6.40
2022-11-05T21:29:41.806Z,6.30
2022-11-05T21:32:09.949Z,6.30
2022-11-05T21:34:38.106Z,6.20
2022-11-05T21:37:06.939Z,6.20
2022-11-05T21:39:35.404Z,6.20
2022-11-05T21:42:03.986Z,6.20
2022-11-05T21:44:32.170Z,6.20
2022-11-05T21:47:04.429Z,6.10
2022-11-05T21:49:34.957Z,6.20
2022-11-05T21:52:20.594Z,6.10
2022-11-05T21:55:06.525Z,6.10
2022-11-05T21:57:55.386Z,6.00
2022-11-05T22:00:23.861Z,5.90
2022-11-05T22:02:53.630Z,5.90
2022-11-05T22:05:21.885Z,5.90
2022-11-05T22:07:49.999Z,5.80
2022-11-05T22:10:18.140Z,5.80
2022-11-05T22:12:47.183Z,5.80
2022-11-05T22:15:15.844Z,5.80
2022-11-05T22:17:46.888Z,5.70
2022-11-05T22:20:17.492Z,5.70
2022-11-05T22:22:45.765Z,5.60
2022-11-05T22:25:14.648Z,5.50
2022-11-05T22:27:43.953Z,5.50
2022-11-05T22:30:13.618Z,5.60
2022-11-05T22:32:41.740Z,5.50
2022-11-05T22:35:10.768Z,5.50
2022-11-05T22:37:40.370Z,5.50
2022-11-05T22:40:09.783Z,5.50
2022-11-05T22:42:38.013Z,5.50
2022-11-05T22:45:07.288Z,5.40
2022-11-05T22:47:35.382Z,5.40
2022-11-05T22:50:03.553Z,5.40
2022-11-05T22:52:32.760Z,5.30
2022-11-05T22:55:03.647Z,5.30
2022-11-05T22:57:31.810Z,5.30
2022-11-05T23:00:00.002Z,5.30
2022-11-05T23:02:28.353Z,5.30
2022-11-05T23:04:56.535Z,5.20
2022-11-05T23:07:41.849Z,5.20
2022-11-05T23:10:28.921Z,5.10
2022-11-05T23:12:57.028Z,5.10
2022-11-05T23:15:42.830Z,5.10
2022-11-05T23:18:40.109Z,5.10
2022-11-05T23:21:25.801Z,5.10
2022-11-05T23:24:05.626Z,5.10
2022-11-05T23:26:51.604Z,5.10
2022-11-05T23:29:21.380Z,5.10
2022-11-05T23:32:07.305Z,5.10
2022-11-05T23:34:35.564Z,5.10
2022-11-05T23:37:21.732Z,5.00
2022-11-05T23:39:50.324Z,4.90
2022-11-05T23:42:37.734Z,4.90
2022-11-05T23:45:24.570Z,5.00
2022-11-05T23:48:10.406Z,5.00
2022-11-05T23:50:40.129Z,5.00
2022-11-05T23:53:09.219Z,5.00
2022-11-05T23:55:37.344Z,5.10
2022-11-05T23:58:07.121Z,5.10
